KSUA/SUA METAR and TAF weather

Enter ICAO airport designator
Station Type Date Time Source
KSUA METAR 2020/01/23 05:55 UTC NOAA

KSUA 230555Z AUTO 30008KT 7SM SCT037 SCT050 BKN070 13/12 A3006 RMK AO2


Station Type Date Time Source
KSUA Decoded METAR 2020/01/23 05:55 UTC NOAA

Stuart, Witham Field Airport, FL, United States (KSUA) 27-10-54N 080-13-16W
Jan 23, 2020 - 12:55 AM EST / 2020.01.23 0555 UTC
Wind: from the WNW (300 degrees) at 9 MPH (8 KT):0
Visibility: 7 mile(s):0
Sky conditions: mostly cloudy
Temperature: 55 F (13 C)
Dew Point: 53 F (12 C)
Relative Humidity: 93%
Pressure (altimeter): 30.06 in. Hg (1017 hPa)
ob: KSUA 230555Z AUTO 30008KT 7SM SCT037 SCT050 BKN070 13/12 A3006 RMK AO2
cycle: 6

Station Type Date Time Source
KSUA TAF 2020/01/23 06:27 UTC NOAA

TAF KSUA 230524Z 2306/2406 32007KT P6SM VCSH BKN045
FM231200 04009KT P6SM VCSH BKN035
FM231600 08011G18KT P6SM VCSH BKN040

Example: see airport list